Time;durP1;ratioP1;P1;durP2;ratioP2;P2;SDS_P1;SDS_P2;PMS_P1;PMS_P2;Temp;Humidity;BMP_temperature;BMP_pressure;BME280_temperature;BME280_humidity;BME280_pressure;Samples;Min_cycle;Max_cycle;Signal;HPM_P1;HPM_P2
2023/06/07 00:02:08;;;;;;;1.15;1.15;;;;;;;10.92;100.00;91199.31;5011508;28;20064;-64
2023/06/07 00:04:35;;;;;;;1.38;1.33;;;;;;;10.89;100.00;91201.75;5010996;28;20057;-65
2023/06/07 00:07:02;;;;;;;0.80;0.80;;;;;;;10.80;100.00;91196.41;5011506;28;20026;-64
2023/06/07 00:09:29;;;;;;;1.20;1.20;;;;;;;10.69;100.00;91192.41;5011470;28;20042;-64
2023/06/07 00:11:55;;;;;;;0.82;0.82;;;;;;;10.60;100.00;91188.91;5011236;28;20030;-64
2023/06/07 00:14:21;;;;;;;2.35;2.20;;;;;;;10.58;100.00;91191.09;5011075;28;20029;-65
2023/06/07 00:16:47;;;;;;;1.13;1.13;;;;;;;10.57;100.00;91190.25;5011194;28;20037;-64
2023/06/07 00:19:12;;;;;;;1.50;1.40;;;;;;;10.64;100.00;91184.53;5011271;28;20045;-65
2023/06/07 00:21:38;;;;;;;1.27;1.27;;;;;;;10.62;100.00;91181.41;5011390;28;20423;-65
2023/06/07 00:24:04;;;;;;;1.02;1.02;;;;;;;10.74;100.00;91189.63;5011008;28;20033;-64
2023/06/07 00:26:30;;;;;;;0.95;0.95;;;;;;;10.78;100.00;91191.38;5011128;28;20062;-65
2023/06/07 00:28:56;;;;;;;1.33;1.23;;;;;;;10.83;100.00;91187.00;5011097;28;20550;-65
2023/06/07 00:31:21;;;;;;;1.08;1.08;;;;;;;10.91;100.00;91184.44;5010960;28;20026;-65
2023/06/07 00:33:47;;;;;;;1.38;1.38;;;;;;;10.95;100.00;91185.38;5012729;28;20045;-65
2023/06/07 00:36:12;;;;;;;7.72;1.90;;;;;;;10.92;100.00;91183.34;5014697;28;20407;-65
2023/06/07 00:38:37;;;;;;;0.90;0.90;;;;;;;11.01;100.00;91186.81;5014548;28;20403;-65
2023/06/07 00:41:03;;;;;;;0.90;0.90;;;;;;;11.00;100.00;91177.25;5029705;28;20025;-65
2023/06/07 00:43:28;;;;;;;0.98;0.98;;;;;;;11.02;100.00;91164.44;5014428;28;20105;-65
2023/06/07 00:45:54;;;;;;;2.38;1.33;;;;;;;11.00;100.00;91171.94;5014488;28;20411;-65
2023/06/07 00:48:19;;;;;;;0.80;0.80;;;;;;;11.06;100.00;91165.41;5014367;28;20030;-65
2023/06/07 00:50:45;;;;;;;3.15;2.90;;;;;;;11.10;100.00;91174.34;5014400;28;20033;-65
2023/06/07 00:53:11;;;;;;;0.80;0.80;;;;;;;11.16;100.00;91175.00;5014314;28;20037;-65
2023/06/07 00:55:37;;;;;;;1.00;1.00;;;;;;;11.28;100.00;91175.22;5014332;28;20042;-65
2023/06/07 00:58:03;;;;;;;1.08;1.08;;;;;;;11.45;100.00;91168.41;5014292;28;20033;-65
2023/06/07 01:00:29;;;;;;;1.30;1.30;;;;;;;11.54;100.00;91171.91;5014190;28;20026;-65
2023/06/07 01:02:55;;;;;;;1.05;1.05;;;;;;;11.63;100.00;91170.81;5014170;28;20022;-65
2023/06/07 01:05:21;;;;;;;1.42;1.40;;;;;;;11.61;100.00;91162.34;5014010;28;20457;-65
2023/06/07 01:07:49;;;;;;;1.00;1.00;;;;;;;11.63;100.00;91165.50;5012839;28;20504;-65
2023/06/07 01:10:15;;;;;;;0.90;0.90;;;;;;;11.66;100.00;91167.53;5014070;28;20022;-65
2023/06/07 01:12:45;;;;;;;1.65;1.60;;;;;;;11.72;100.00;91165.53;5013901;28;20515;-65
2023/06/07 01:15:14;;;;;;;0.80;0.80;;;;;;;11.79;100.00;91162.44;5013982;28;20170;-65
2023/06/07 01:17:44;;;;;;;1.35;1.35;;;;;;;11.80;100.00;91164.78;5013923;28;20033;-65
2023/06/07 01:20:19;;;;;;;0.90;0.90;;;;;;;11.81;100.00;91161.03;5014032;28;20092;-64
2023/06/07 01:22:45;;;;;;;4.30;2.05;;;;;;;11.67;100.00;91157.66;5013978;28;20037;-65
2023/06/07 01:25:10;;;;;;;1.25;1.25;;;;;;;11.55;100.00;91155.59;5029031;28;20607;-64
2023/06/07 01:27:40;;;;;;;1.95;1.45;;;;;;;11.44;100.00;91154.28;5013708;28;20083;-64
2023/06/07 01:30:07;;;;;;;1.00;1.00;;;;;;;11.40;100.00;91153.34;5013622;28;20081;-64
2023/06/07 01:32:33;;;;;;;1.00;1.00;;;;;;;11.47;100.00;91159.00;5013559;28;20041;-64
2023/06/07 01:34:59;;;;;;;1.65;1.55;;;;;;;11.51;100.00;91159.16;5013594;28;20053;-64
2023/06/07 01:37:25;;;;;;;1.00;1.00;;;;;;;11.49;100.00;91156.03;5013544;28;20471;-64
2023/06/07 01:39:54;;;;;;;0.85;0.85;;;;;;;11.58;100.00;91154.19;5013419;28;20022;-65
2023/06/07 01:42:20;;;;;;;1.25;1.15;;;;;;;11.55;100.00;91158.25;5013546;28;20064;-65
2023/06/07 01:44:47;;;;;;;0.80;0.80;;;;;;;11.36;100.00;91157.69;5012886;28;20504;-65
2023/06/07 01:47:14;;;;;;;2.15;1.60;;;;;;;11.25;100.00;91159.88;5013413;28;20033;-65
2023/06/07 01:49:40;;;;;;;3.58;1.25;;;;;;;11.20;100.00;91157.31;5013527;28;20022;-65
2023/06/07 01:52:06;;;;;;;0.80;0.80;;;;;;;11.32;100.00;91154.88;5013446;28;20080;-66
2023/06/07 01:54:31;;;;;;;0.90;0.90;;;;;;;11.32;100.00;91152.19;5013230;28;20522;-65
2023/06/07 01:57:06;;;;;;;0.98;0.98;;;;;;;11.25;100.00;91151.88;5028410;28;20052;-65
2023/06/07 01:59:44;;;;;;;0.93;0.93;;;;;;;11.29;100.00;91150.16;5013094;28;20447;-65
2023/06/07 02:02:32;;;;;;;1.70;1.35;;;;;;;11.29;100.00;91149.38;5012973;28;20033;-65
2023/06/07 02:05:01;;;;;;;1.38;1.27;;;;;;;11.34;100.00;91149.22;5012774;28;20555;-65
2023/06/07 02:07:29;;;;;;;1.23;1.20;;;;;;;11.33;100.00;91153.78;5012970;28;20038;-65
2023/06/07 02:09:57;;;;;;;1.00;1.00;;;;;;;11.28;100.00;91148.59;5012949;28;20077;-64
2023/06/07 02:12:23;;;;;;;1.40;1.35;;;;;;;11.28;100.00;91150.47;5012765;28;20500;-65
2023/06/07 02:14:52;;;;;;;1.08;1.08;;;;;;;11.29;100.00;91147.50;5012852;28;20036;-64
2023/06/07 02:17:21;;;;;;;1.88;1.77;;;;;;;11.30;100.00;91148.28;5012667;28;20033;-64
2023/06/07 02:19:46;;;;;;;1.95;1.85;;;;;;;11.31;100.00;91155.19;5012959;28;20108;-64
2023/06/07 02:22:14;;;;;;;0.90;0.90;;;;;;;11.32;100.00;91159.41;5012647;28;20057;-65
2023/06/07 02:24:40;;;;;;;1.52;1.42;;;;;;;11.34;100.00;91149.22;5012480;28;20447;-64
2023/06/07 02:27:07;;;;;;;1.13;1.13;;;;;;;11.33;100.00;91153.00;5012885;28;20030;-65
2023/06/07 02:29:33;;;;;;;1.00;1.00;;;;;;;11.30;100.00;91148.28;5012885;28;20063;-65
2023/06/07 02:32:00;;;;;;;1.33;1.33;;;;;;;11.29;100.00;91146.72;5012442;28;20393;-65
2023/06/07 02:34:26;;;;;;;1.77;1.65;;;;;;;11.36;100.00;91152.38;5012770;28;20029;-64
2023/06/07 02:36:52;;;;;;;3.05;1.10;;;;;;;11.34;100.00;91149.22;5012667;28;20026;-64
2023/06/07 02:39:18;;;;;;;1.00;1.00;;;;;;;11.34;100.00;91154.56;5012304;28;20025;-65
2023/06/07 02:41:43;;;;;;;0.90;0.90;;;;;;;11.35;100.00;91151.59;5012354;28;20034;-65
2023/06/07 02:44:08;;;;;;;0.90;0.90;;;;;;;11.37;100.00;91143.31;5012226;28;20030;-65
2023/06/07 02:46:34;;;;;;;0.90;0.90;;;;;;;11.40;100.00;91145.34;5012335;28;20065;-64
2023/06/07 02:48:59;;;;;;;2.63;2.42;;;;;;;11.49;100.00;91145.38;5012222;28;20026;-65
2023/06/07 02:51:25;;;;;;;0.95;0.95;;;;;;;11.49;100.00;91151.47;5012220;28;20034;-65
2023/06/07 02:53:50;;;;;;;1.60;1.30;;;;;;;11.54;100.00;91151.38;5012075;28;20025;-65
2023/06/07 02:56:16;;;;;;;1.75;1.65;;;;;;;11.59;100.00;91145.88;5011819;28;20033;-65
2023/06/07 02:58:42;;;;;;;1.00;1.00;;;;;;;11.55;100.00;91144.94;5011578;28;20025;-64
2023/06/07 03:01:08;;;;;;;1.80;1.70;;;;;;;11.54;100.00;91150.59;5012176;28;20112;-65
2023/06/07 03:03:37;;;;;;;1.83;1.73;;;;;;;11.58;100.00;91146.19;5011943;28;20030;-65
2023/06/07 03:06:04;;;;;;;0.85;0.85;;;;;;;11.51;100.00;91146.63;5011800;28;20111;-65
2023/06/07 03:08:30;;;;;;;2.85;1.10;;;;;;;11.29;100.00;91139.50;5011856;28;20026;-65
2023/06/07 03:10:56;;;;;;;1.48;1.38;;;;;;;11.19;100.00;91142.44;5012018;28;20030;-65
2023/06/07 03:13:21;;;;;;;1.15;1.10;;;;;;;11.14;100.00;91136.47;5011741;28;20412;-65
2023/06/07 03:15:47;;;;;;;0.90;0.90;;;;;;;11.02;100.00;91129.81;5011784;28;20068;-65
2023/06/07 03:18:15;;;;;;;1.00;1.00;;;;;;;11.02;100.00;91137.03;5011767;28;20084;-65
2023/06/07 03:20:41;;;;;;;0.90;0.90;;;;;;;11.00;100.00;91132.00;5011691;28;20090;-65
2023/06/07 03:23:06;;;;;;;0.90;0.90;;;;;;;10.98;100.00;91128.09;5011573;28;20141;-65
2023/06/07 03:25:32;;;;;;;1.35;1.35;;;;;;;10.95;100.00;91131.38;5011718;28;20567;-65
2023/06/07 03:27:57;;;;;;;1.45;1.35;;;;;;;10.91;100.00;91125.09;5011576;28;20022;-65
2023/06/07 03:30:23;;;;;;;1.10;1.10;;;;;;;10.92;100.00;91124.00;5145962;22;20054;-65
2023/06/07 03:32:48;;;;;;;1.00;1.00;;;;;;;10.77;100.00;91125.16;5011545;28;20030;-65
2023/06/07 03:35:14;;;;;;;0.93;0.93;;;;;;;10.68;100.00;91124.31;5011594;28;20029;-65
2023/06/07 03:37:39;;;;;;;1.23;1.23;;;;;;;10.64;100.00;91131.34;5011556;28;20029;-65
2023/06/07 03:40:05;;;;;;;0.90;0.90;;;;;;;10.69;100.00;91128.53;5011323;28;20037;-65
2023/06/07 03:42:30;;;;;;;2.22;2.05;;;;;;;10.74;100.00;91129.22;5011715;28;20104;-65
2023/06/07 03:44:56;;;;;;;1.02;1.02;;;;;;;10.84;100.00;91135.38;5011485;28;20570;-65
2023/06/07 03:47:21;;;;;;;1.00;1.00;;;;;;;10.89;100.00;91128.06;5011456;28;20026;-65
2023/06/07 03:49:46;;;;;;;1.20;1.20;;;;;;;10.99;100.00;91132.31;5011383;28;20491;-65
2023/06/07 03:52:12;;;;;;;0.80;0.80;;;;;;;11.03;100.00;91128.72;5011427;28;20034;-65
2023/06/07 03:54:37;;;;;;;0.98;0.98;;;;;;;11.11;100.00;91124.56;5010599;28;20120;-66
2023/06/07 03:57:03;;;;;;;0.85;0.85;;;;;;;11.22;100.00;91130.41;5011277;28;20396;-65
2023/06/07 03:59:29;;;;;;;1.00;1.00;;;;;;;11.31;100.00;91125.88;5011455;28;20037;-65
2023/06/07 04:01:57;;;;;;;1.17;1.17;;;;;;;11.40;100.00;91140.03;5011193;28;20030;-65
2023/06/07 04:04:27;;;;;;;1.00;1.00;;;;;;;11.52;100.00;91137.56;5011190;28;20041;-65
2023/06/07 04:06:53;;;;;;;3.42;1.77;;;;;;;11.70;100.00;91131.19;5011476;28;20092;-65
2023/06/07 04:09:19;;;;;;;1.00;1.00;;;;;;;11.77;100.00;91130.72;5013607;28;20033;-65
2023/06/07 04:11:45;;;;;;;1.27;1.27;;;;;;;11.75;100.00;91132.13;5015095;28;20037;-65
2023/06/07 04:14:10;;;;;;;1.10;1.05;;;;;;;11.79;100.00;91127.78;5014771;28;20133;-65
2023/06/07 04:16:36;;;;;;;8.50;2.60;;;;;;;11.85;100.00;91131.88;5014850;28;20088;-65
2023/06/07 04:19:01;;;;;;;1.20;1.20;;;;;;;11.91;100.00;91130.63;5014769;28;20025;-65
2023/06/07 04:21:26;;;;;;;1.45;1.35;;;;;;;12.06;100.00;91129.41;5014586;28;20419;-65
2023/06/07 04:23:52;;;;;;;1.80;1.70;;;;;;;12.15;100.00;91123.00;5014842;28;20488;-65
2023/06/07 04:26:21;;;;;;;1.10;1.10;;;;;;;12.17;100.00;91115.47;5014709;28;20030;-65
2023/06/07 04:28:49;;;;;;;1.15;1.15;;;;;;;12.26;100.00;91110.13;5015023;28;20029;-64
2023/06/07 04:31:15;;;;;;;1.30;1.30;;;;;;;12.52;100.00;91126.13;5014364;28;20497;-64
2023/06/07 04:33:46;;;;;;;1.10;1.10;;;;;;;12.64;100.00;91120.94;5014628;28;20032;-64
2023/06/07 04:36:14;;;;;;;1.20;1.10;;;;;;;12.75;100.00;91122.16;5014605;28;20030;-64
2023/06/07 04:38:39;;;;;;;1.15;1.15;;;;;;;13.02;100.00;91122.91;5014458;28;20435;-64
2023/06/07 04:41:06;;;;;;;1.48;1.48;;;;;;;12.93;100.00;91117.56;5014277;28;20037;-64
2023/06/07 04:43:35;;;;;;;2.05;1.95;;;;;;;13.19;100.00;91120.22;5014729;28;20066;-65
2023/06/07 04:46:01;;;;;;;2.95;1.27;;;;;;;13.47;100.00;91116.03;5009791;28;20030;-62
2023/06/07 04:48:27;;;;;;;1.75;1.38;;;;;;;13.49;100.00;91121.06;4994925;28;20030;-64
2023/06/07 04:51:05;;;;;;;1.58;1.48;;;;;;;13.77;100.00;91127.53;4994596;28;20037;-65
2023/06/07 04:53:36;;;;;;;1.35;1.20;;;;;;;13.99;100.00;91118.44;5002068;28;20032;-63
2023/06/07 04:56:03;;;;;;;1.05;1.05;;;;;;;14.23;100.00;91122.41;5004622;28;20145;-63
2023/06/07 04:58:31;;;;;;;2.63;1.52;;;;;;;14.38;100.00;91121.81;5004323;28;20022;-65
2023/06/07 05:00:56;;;;;;;3.75;2.75;;;;;;;14.56;100.00;91106.44;5002667;28;20027;-66
2023/06/07 05:03:22;;;;;;;1.45;1.35;;;;;;;14.98;100.00;91115.16;5004534;28;20105;-65
2023/06/07 05:05:49;;;;;;;1.77;1.60;;;;;;;15.36;100.00;91116.84;5003772;28;20030;-65
2023/06/07 05:08:15;;;;;;;1.13;1.13;;;;;;;15.56;100.00;91115.97;5002057;28;20070;-64
2023/06/07 05:10:40;;;;;;;1.65;1.55;;;;;;;15.52;100.00;91110.50;4999291;28;20455;-63
2023/06/07 05:13:06;;;;;;;10.43;1.40;;;;;;;15.86;100.00;91114.66;4994351;28;20031;-65
2023/06/07 05:15:32;;;;;;;1.77;1.42;;;;;;;15.41;100.00;91113.94;4994366;28;20034;-65
2023/06/07 05:17:58;;;;;;;1.50;1.40;;;;;;;15.54;100.00;91110.16;4994510;28;20030;-65
2023/06/07 05:20:24;;;;;;;2.05;1.95;;;;;;;15.69;100.00;91114.91;4993002;28;20408;-65
2023/06/07 05:22:50;;;;;;;2.83;2.63;;;;;;;15.87;100.00;91118.13;4994086;28;20443;-65
2023/06/07 05:25:16;;;;;;;1.67;1.58;;;;;;;16.22;100.00;91121.13;4994345;28;20031;-65
2023/06/07 05:27:42;;;;;;;1.23;1.23;;;;;;;16.47;100.00;91125.34;4994085;28;20034;-65
2023/06/07 05:30:08;;;;;;;4.68;3.47;;;;;;;16.71;100.00;91121.81;4976492;28;20120;-65
2023/06/07 05:32:34;;;;;;;2.45;2.05;;;;;;;17.45;100.00;91116.91;4994027;28;20022;-65
2023/06/07 05:35:01;;;;;;;3.30;2.60;;;;;;;18.27;100.00;91113.53;5002663;28;20041;-67
2023/06/07 05:37:28;;;;;;;3.83;1.60;;;;;;;18.51;100.00;91115.22;5002875;28;20139;-66
2023/06/07 05:39:54;;;;;;;4.03;2.58;;;;;;;18.44;100.00;91109.66;5002083;28;20494;-67
2023/06/07 05:42:19;;;;;;;1.38;1.30;;;;;;;18.43;100.00;91110.78;5004074;28;20018;-64
2023/06/07 05:44:46;;;;;;;3.88;3.58;;;;;;;18.83;100.00;91111.31;4998710;28;20121;-63
2023/06/07 05:47:12;;;;;;;1.40;1.30;;;;;;;19.82;100.00;91117.03;4993686;28;20027;-63
2023/06/07 05:49:38;;;;;;;2.80;1.92;;;;;;;20.35;100.00;91108.97;4993349;28;20113;-63
2023/06/07 05:52:03;;;;;;;1.88;1.20;;;;;;;20.64;100.00;91116.38;4993531;28;20110;-65
2023/06/07 05:54:29;;;;;;;1.10;1.10;;;;;;;21.46;98.96;91116.66;4993571;28;20088;-64
2023/06/07 05:56:54;;;;;;;1.80;1.60;;;;;;;21.51;92.46;91124.47;4993539;28;20042;-63
2023/06/07 05:59:19;;;;;;;1.80;1.70;;;;;;;21.08;92.50;91123.94;4993748;28;20034;-65
2023/06/07 06:01:46;;;;;;;1.98;1.88;;;;;;;21.16;94.32;91117.47;4993237;28;20555;-66
2023/06/07 06:04:11;;;;;;;1.65;1.55;;;;;;;21.04;95.87;91114.22;4989050;28;20041;-67
2023/06/07 06:06:38;;;;;;;4.50;1.20;;;;;;;21.54;95.50;91118.28;4992202;28;20039;-64
2023/06/07 06:09:04;;;;;;;2.05;1.50;;;;;;;21.87;86.20;91116.69;4993195;28;20161;-64
2023/06/07 06:11:30;;;;;;;1.83;1.65;;;;;;;23.71;80.32;91122.53;4992875;28;20094;-65
2023/06/07 06:13:56;;;;;;;2.10;2.00;;;;;;;24.51;71.15;91116.81;4992937;28;20046;-67
2023/06/07 06:16:21;;;;;;;0.93;0.93;;;;;;;25.03;64.57;91117.16;4992597;28;20032;-67
2023/06/07 06:18:46;;;;;;;2.25;1.30;;;;;;;25.17;62.77;91119.06;4992874;28;20036;-64
2023/06/07 06:21:12;;;;;;;1.60;1.50;;;;;;;25.10;62.19;91117.16;4992662;28;20444;-66
2023/06/07 06:23:38;;;;;;;0.90;0.90;;;;;;;26.70;58.16;91124.47;4992831;28;20030;-65
2023/06/07 06:26:04;;;;;;;3.58;2.30;;;;;;;25.45;59.22;91124.41;4992798;28;20385;-66
2023/06/07 06:28:29;;;;;;;1.38;1.27;;;;;;;27.14;55.28;91120.97;4992961;28;20045;-66
2023/06/07 06:30:55;;;;;;;1.50;1.40;;;;;;;28.01;53.19;91127.75;4991797;28;20058;-66
2023/06/07 06:33:20;;;;;;;8.05;1.45;;;;;;;29.56;49.14;91127.66;4992681;28;20101;-67
2023/06/07 06:35:47;;;;;;;4.15;2.15;;;;;;;29.75;46.74;91126.13;4992433;28;20031;-66
2023/06/07 06:38:12;;;;;;;1.63;1.52;;;;;;;27.56;50.04;91129.88;4992546;28;20041;-66
2023/06/07 06:40:38;;;;;;;2.35;2.10;;;;;;;28.97;48.93;91130.28;4992368;28;20106;-68
2023/06/07 06:43:03;;;;;;;2.53;1.38;;;;;;;29.82;45.05;91131.44;4992921;28;20516;-68
2023/06/07 06:45:29;;;;;;;4.40;2.60;;;;;;;30.87;43.57;91137.03;4992538;28;20022;-68
2023/06/07 06:47:54;;;;;;;3.15;2.15;;;;;;;28.65;47.76;91115.13;4992516;28;20030;-68
2023/06/07 06:50:19;;;;;;;1.00;1.00;;;;;;;27.01;51.64;91111.75;4992396;28;20037;-68
2023/06/07 06:52:45;;;;;;;60.65;8.43;;;;;;;25.73;54.53;91120.81;4992424;28;20030;-68
2023/06/07 06:55:10;;;;;;;0.75;0.75;;;;;;;26.31;55.80;91107.59;4992490;28;20030;-68
2023/06/07 06:57:36;;;;;;;1.23;1.13;;;;;;;26.88;52.95;91113.41;4992411;28;20027;-68
2023/06/07 07:00:11;;;;;;;1.50;1.40;;;;;;;27.09;52.81;91112.44;4992147;28;20120;-68
2023/06/07 07:02:36;;;;;;;1.27;1.23;;;;;;;28.40;50.10;91117.47;4992330;28;20025;-68
2023/06/07 07:05:05;;;;;;;1.80;1.25;;;;;;;28.29;49.71;91112.16;4992075;28;20121;-68
2023/06/07 07:07:30;;;;;;;27.00;1.77;;;;;;;29.64;47.46;91117.31;4992182;28;20022;-68
2023/06/07 07:09:56;;;;;;;18.60;4.55;;;;;;;30.99;45.10;91108.88;4992129;28;20037;-69
2023/06/07 07:12:21;;;;;;;8.75;3.67;;;;;;;29.32;46.19;91112.44;4992137;28;20451;-69
2023/06/07 07:14:47;;;;;;;12.00;2.65;;;;;;;30.36;43.99;91120.91;4992174;28;20039;-69
2023/06/07 07:17:12;;;;;;;17.30;2.15;;;;;;;28.93;46.96;91120.16;4992202;28;20037;-68
2023/06/07 07:19:38;;;;;;;137.30;11.40;;;;;;;27.34;49.48;91115.69;4991800;28;20030;-68
2023/06/07 07:22:04;;;;;;;40.35;4.05;;;;;;;27.43;50.50;91117.91;4992154;28;20029;-68
2023/06/07 07:24:30;;;;;;;35.20;2.67;;;;;;;29.29;47.66;91118.75;4991998;28;20034;-68
2023/06/07 07:26:55;;;;;;;50.05;3.67;;;;;;;30.72;45.54;91122.09;4991964;28;20034;-68
2023/06/07 07:29:21;;;;;;;229.15;26.48;;;;;;;30.49;44.49;91121.03;4974447;28;20026;-68
2023/06/07 07:31:46;;;;;;;34.33;1.83;;;;;;;31.10;44.08;91120.38;4991789;28;20046;-68
2023/06/07 07:34:12;;;;;;;275.33;21.08;;;;;;;30.03;43.84;91128.28;4991779;28;20092;-68
2023/06/07 07:36:41;;;;;;;94.95;9.88;;;;;;;28.13;47.80;91118.22;4991801;28;20109;-68
2023/06/07 07:39:06;;;;;;;34.95;3.58;;;;;;;28.56;48.19;91128.56;4991825;28;20030;-68
2023/06/07 07:41:34;;;;;;;96.78;8.30;;;;;;;28.83;47.71;91126.56;4991610;28;20101;-68
2023/06/07 07:44:01;;;;;;;102.72;7.20;;;;;;;28.70;46.48;91127.56;4991320;28;20033;-68
2023/06/07 07:46:28;;;;;;;53.70;7.10;;;;;;;27.79;48.49;91126.50;4991620;28;20486;-68
2023/06/07 07:48:53;;;;;;;82.47;10.05;;;;;;;28.19;49.02;91127.50;4991773;28;20030;-68
2023/06/07 07:51:19;;;;;;;62.10;9.80;;;;;;;27.93;48.81;91123.59;4991674;28;20054;-68
2023/06/07 07:53:45;;;;;;;38.60;6.65;;;;;;;27.59;49.60;91120.84;4991669;28;20499;-68
2023/06/07 07:56:11;;;;;;;301.38;27.33;;;;;;;27.57;50.31;91130.63;4991760;28;20058;-68
2023/06/07 07:58:36;;;;;;;570.50;47.92;;;;;;;27.03;49.68;91131.22;4991660;28;20097;-68
2023/06/07 08:01:03;;;;;;;205.07;13.48;;;;;;;27.18;50.49;91128.34;4991476;28;20034;-69
2023/06/07 08:03:29;;;;;;;278.40;19.90;;;;;;;27.86;49.66;91137.34;4991661;28;20562;-68
2023/06/07 08:05:54;;;;;;;167.88;15.35;;;;;;;27.62;50.15;91133.72;4991648;28;20030;-68
2023/06/07 08:08:20;;;;;;;64.95;7.88;;;;;;;27.90;49.43;91134.56;4991657;28;20408;-68
2023/06/07 08:10:46;;;;;;;76.13;7.18;;;;;;;29.87;46.92;91138.44;4991461;28;20512;-68
2023/06/07 08:13:12;;;;;;;44.92;8.75;;;;;;;30.19;45.62;91138.56;4991585;28;20039;-68
2023/06/07 08:15:39;;;;;;;46.00;10.18;;;;;;;30.61;44.42;91134.09;4991590;28;20038;-68
2023/06/07 08:18:05;;;;;;;116.75;15.43;;;;;;;28.99;46.46;91127.91;4991800;28;20032;-68
2023/06/07 08:20:30;;;;;;;183.93;20.80;;;;;;;29.73;47.53;91131.25;4991295;28;20481;-68
2023/06/07 08:22:56;;;;;;;209.82;11.27;;;;;;;30.76;44.18;91134.53;4991315;28;20026;-68
2023/06/07 08:25:22;;;;;;;445.42;21.55;;;;;;;30.85;43.01;91140.22;4991728;28;20026;-68
2023/06/07 08:27:48;;;;;;;234.65;10.35;;;;;;;28.70;47.47;91124.81;4991377;28;20034;-68
2023/06/07 08:30:14;;;;;;;112.72;18.50;;;;;;;29.48;46.86;91128.97;4991043;28;20050;-69
2023/06/07 08:32:39;;;;;;;145.45;17.20;;;;;;;28.38;48.07;91142.50;4991392;28;20027;-68
2023/06/07 08:35:06;;;;;;;77.68;8.25;;;;;;;26.82;52.63;91137.59;4990030;28;20041;-68
2023/06/07 08:37:32;;;;;;;88.97;7.28;;;;;;;26.22;53.84;91133.38;4991573;28;20100;-68
2023/06/07 08:39:57;;;;;;;83.43;7.72;;;;;;;26.39;54.74;91134.47;4991171;28;20030;-69
2023/06/07 08:42:22;;;;;;;75.85;4.95;;;;;;;26.25;56.66;91134.53;4991334;28;20058;-68
2023/06/07 08:44:49;;;;;;;37.17;3.40;;;;;;;26.85;55.30;91127.84;4991224;28;20030;-68
2023/06/07 08:47:16;;;;;;;1.55;1.45;;;;;;;26.58;55.49;91130.41;4991232;28;20034;-68
2023/06/07 08:49:44;;;;;;;0.80;0.80;;;;;;;26.64;55.05;91131.53;4991195;28;20030;-68
2023/06/07 08:52:10;;;;;;;3.17;1.35;;;;;;;25.94;58.59;91130.84;4988421;28;20555;-68
2023/06/07 08:54:41;;;;;;;1.52;1.42;;;;;;;26.00;58.45;91137.41;4991150;28;20162;-67
2023/06/07 08:57:09;;;;;;;0.93;0.93;;;;;;;25.75;60.09;91145.72;4994553;28;20489;-69
2023/06/07 08:59:36;;;;;;;2.70;2.00;;;;;;;25.97;60.69;91138.97;4991504;28;20500;-69
2023/06/07 09:02:03;;;;;;;1.10;1.00;;;;;;;25.50;61.33;91150.47;4994439;28;20066;-67
2023/06/07 09:04:29;;;;;;;2.00;1.02;;;;;;;24.73;66.69;91140.09;4994192;28;20026;-67
2023/06/07 09:06:55;;;;;;;3.13;1.10;;;;;;;24.83;66.51;91148.66;4994608;28;20027;-67
2023/06/07 09:09:20;;;;;;;0.98;0.98;;;;;;;25.62;62.83;91141.84;4992786;28;20034;-68
2023/06/07 09:11:51;;;;;;;2.92;0.80;;;;;;;26.90;60.44;91138.34;4994193;28;20054;-66
2023/06/07 09:14:17;;;;;;;1.08;0.98;;;;;;;27.46;57.22;91141.72;4994223;28;20031;-67
2023/06/07 09:16:56;;;;;;;1.00;1.00;;;;;;;27.10;55.95;91142.06;4994200;28;20028;-67
2023/06/07 09:19:33;;;;;;;1.13;0.93;;;;;;;25.84;57.43;91146.06;4993507;28;20040;-66
2023/06/07 09:21:59;;;;;;;0.93;0.93;;;;;;;25.54;60.22;91143.81;4994354;28;20053;-66
2023/06/07 09:24:30;;;;;;;1.40;1.35;;;;;;;25.24;60.96;91151.69;4993856;28;20484;-66
2023/06/07 09:26:56;;;;;;;1.45;1.35;;;;;;;26.16;60.66;91145.88;4994006;28;20030;-66
2023/06/07 09:29:21;;;;;;;1.33;1.23;;;;;;;26.26;58.89;91149.72;4993844;28;20018;-67
2023/06/07 09:31:47;;;;;;;0.90;0.90;;;;;;;26.90;56.97;91149.25;4993675;28;20050;-66
2023/06/07 09:34:24;;;;;;;1.13;1.13;;;;;;;27.96;55.28;91141.13;4993528;28;20030;-68
2023/06/07 09:36:54;;;;;;;1.08;1.05;;;;;;;28.44;53.32;91143.59;4993891;28;20113;-67
2023/06/07 09:39:24;;;;;;;1.05;0.93;;;;;;;26.35;55.83;91154.72;4993837;28;20054;-67
2023/06/07 09:41:51;;;;;;;1.75;1.15;;;;;;;27.02;57.01;91151.53;4993606;28;20028;-67
2023/06/07 09:44:35;;;;;;;0.85;0.85;;;;;;;27.82;54.32;91152.25;4993662;28;20033;-67
2023/06/07 09:47:00;;;;;;;1.02;0.93;;;;;;;27.25;55.71;91141.91;4993431;28;20022;-68
2023/06/07 09:49:28;;;;;;;0.95;0.95;;;;;;;27.72;54.36;91146.50;4992948;28;20484;-68
2023/06/07 09:51:54;;;;;;;2.13;1.42;;;;;;;27.37;55.17;91135.94;5008250;28;20117;-67
2023/06/07 09:54:45;;;;;;;0.80;0.80;;;;;;;26.97;56.54;91138.25;4993383;28;20034;-67
2023/06/07 09:57:23;;;;;;;1.63;1.33;;;;;;;28.36;53.37;91138.66;4992141;28;20416;-67
2023/06/07 09:59:58;;;;;;;1.48;1.38;;;;;;;27.87;53.01;91143.59;4993022;28;20541;-67
2023/06/07 10:02:27;;;;;;;0.70;0.70;;;;;;;27.68;53.92;91143.03;4993192;28;20113;-67
2023/06/07 10:04:53;;;;;;;1.42;1.27;;;;;;;27.56;53.55;91131.81;4992774;28;20038;-67
2023/06/07 10:07:22;;;;;;;1.50;1.40;;;;;;;27.32;54.45;91137.16;4992763;28;20033;-66
2023/06/07 10:09:53;;;;;;;1.08;1.08;;;;;;;27.11;56.15;91129.97;4993308;28;20135;-66
2023/06/07 10:12:24;;;;;;;2.60;1.70;;;;;;;27.00;56.55;91131.22;4993308;28;20034;-66
2023/06/07 10:14:52;;;;;;;0.88;0.88;;;;;;;27.50;54.13;91130.72;4992993;28;20034;-66
2023/06/07 10:17:21;;;;;;;0.95;0.95;;;;;;;27.45;55.95;91134.66;4992982;28;20640;-67
2023/06/07 10:19:52;;;;;;;3.63;1.45;;;;;;;27.13;55.61;91135.00;4992239;28;20045;-66
2023/06/07 10:22:26;;;;;;;1.13;1.00;;;;;;;27.11;57.26;91132.69;4992838;28;20519;-67
2023/06/07 10:24:57;;;;;;;1.00;1.00;;;;;;;27.41;55.97;91126.50;4992932;28;20034;-67
2023/06/07 10:27:25;;;;;;;2.83;1.35;;;;;;;27.31;55.23;91127.44;4992800;28;20034;-66
2023/06/07 10:30:03;;;;;;;1.75;1.55;;;;;;;27.69;53.24;91125.44;4992489;28;20042;-66
2023/06/07 10:32:36;;;;;;;2.00;1.67;;;;;;;27.81;53.63;91128.81;4992680;28;20412;-66
2023/06/07 10:35:03;;;;;;;1.23;1.10;;;;;;;28.42;52.95;91124.09;4992480;28;20041;-67
2023/06/07 10:37:30;;;;;;;1.38;1.27;;;;;;;28.72;50.64;91130.66;5007543;28;20036;-67
2023/06/07 10:39:57;;;;;;;2.50;1.40;;;;;;;28.63;53.05;91128.47;5011961;28;20040;-66
2023/06/07 10:42:24;;;;;;;6.22;2.03;;;;;;;30.36;49.20;91131.13;5012106;28;20526;-66
2023/06/07 10:44:50;;;;;;;4.45;1.77;;;;;;;29.93;48.49;91128.50;5012041;28;20583;-67
2023/06/07 10:47:22;;;;;;;1.95;1.30;;;;;;;29.07;49.46;91126.59;5012036;28;20073;-66
2023/06/07 10:49:48;;;;;;;1.35;1.10;;;;;;;29.37;50.43;91123.69;5011441;28;20037;-66
2023/06/07 10:52:15;;;;;;;0.93;0.93;;;;;;;29.12;49.17;91115.91;5011704;28;20038;-67
2023/06/07 10:54:42;;;;;;;8.20;1.77;;;;;;;29.12;49.49;91113.19;5011717;28;20026;-67
2023/06/07 10:57:08;;;;;;;2.00;1.58;;;;;;;28.25;51.46;91111.44;5011753;28;20046;-68
2023/06/07 10:59:35;;;;;;;11.60;1.38;;;;;;;29.01;50.45;91106.34;5011813;28;20030;-67
2023/06/07 11:02:23;;;;;;;3.33;1.02;;;;;;;30.06;48.10;91119.22;5011827;28;20037;-67
2023/06/07 11:04:59;;;;;;;1.75;1.23;;;;;;;30.33;48.07;91115.50;5011271;28;20018;-68
2023/06/07 11:07:31;;;;;;;1.73;1.63;;;;;;;30.94;46.81;91098.41;5011941;28;20164;-67
2023/06/07 11:10:00;;;;;;;1.55;1.13;;;;;;;31.26;45.49;91100.38;5011858;28;20034;-67
2023/06/07 11:12:46;;;;;;;1.20;1.17;;;;;;;31.82;43.80;91103.53;5011688;28;20033;-67
2023/06/07 11:15:17;;;;;;;1.15;1.10;;;;;;;31.61;44.11;91095.09;5010265;28;20443;-67
2023/06/07 11:17:53;;;;;;;1.40;1.30;;;;;;;30.58;45.21;91096.47;5010566;28;20034;-67
2023/06/07 11:20:40;;;;;;;1.73;1.30;;;;;;;29.95;46.91;91093.94;5011408;28;20075;-67
2023/06/07 11:23:21;;;;;;;0.82;0.82;;;;;;;29.22;47.54;91093.03;5011487;28;20030;-67
2023/06/07 11:26:05;;;;;;;3.55;1.30;;;;;;;29.66;47.18;91093.00;5011348;28;20492;-67
2023/06/07 11:28:31;;;;;;;1.33;1.23;;;;;;;30.16;48.15;91081.00;5011541;28;20038;-67